sensor_id;sensor_type;location;lat;lon;timestamp;P1;durP1;ratioP1;P2;durP2;ratioP2
5785;SDS011;2919;48.630;9.000;2023-04-30T00:02:14;4.07;;;2.20;;
5785;SDS011;2919;48.630;9.000;2023-04-30T00:04:40;4.00;;;2.53;;
5785;SDS011;2919;48.630;9.000;2023-04-30T00:07:05;5.77;;;2.80;;
5785;SDS011;2919;48.630;9.000;2023-04-30T00:09:31;5.47;;;3.40;;
5785;SDS011;2919;48.630;9.000;2023-04-30T00:11:57;7.60;;;2.93;;
5785;SDS011;2919;48.630;9.000;2023-04-30T00:14:22;7.13;;;3.17;;
5785;SDS011;2919;48.630;9.000;2023-04-30T00:16:48;6.00;;;3.10;;
5785;SDS011;2919;48.630;9.000;2023-04-30T00:19:13;5.33;;;2.80;;
5785;SDS011;2919;48.630;9.000;2023-04-30T00:21:39;5.70;;;2.93;;
5785;SDS011;2919;48.630;9.000;2023-04-30T00:24:05;5.40;;;2.93;;
5785;SDS011;2919;48.630;9.000;2023-04-30T00:26:31;8.40;;;3.77;;
5785;SDS011;2919;48.630;9.000;2023-04-30T00:28:56;7.13;;;3.30;;
5785;SDS011;2919;48.630;9.000;2023-04-30T00:31:22;7.43;;;3.17;;
5785;SDS011;2919;48.630;9.000;2023-04-30T00:33:47;5.40;;;2.37;;
5785;SDS011;2919;48.630;9.000;2023-04-30T00:36:13;7.10;;;3.67;;
5785;SDS011;2919;48.630;9.000;2023-04-30T00:38:38;8.60;;;3.37;;
5785;SDS011;2919;48.630;9.000;2023-04-30T00:41:04;7.20;;;2.33;;
5785;SDS011;2919;48.630;9.000;2023-04-30T00:43:30;10.70;;;3.27;;
5785;SDS011;2919;48.630;9.000;2023-04-30T00:45:56;6.10;;;2.90;;
5785;SDS011;2919;48.630;9.000;2023-04-30T00:48:23;4.50;;;2.73;;
5785;SDS011;2919;48.630;9.000;2023-04-30T00:50:50;5.80;;;3.57;;
5785;SDS011;2919;48.630;9.000;2023-04-30T00:53:15;8.40;;;3.60;;
5785;SDS011;2919;48.630;9.000;2023-04-30T00:55:41;7.60;;;3.10;;
5785;SDS011;2919;48.630;9.000;2023-04-30T00:58:08;7.37;;;2.80;;
5785;SDS011;2919;48.630;9.000;2023-04-30T01:00:34;4.30;;;2.33;;
5785;SDS011;2919;48.630;9.000;2023-04-30T01:03:00;4.37;;;2.50;;
5785;SDS011;2919;48.630;9.000;2023-04-30T01:05:26;11.03;;;3.40;;
5785;SDS011;2919;48.630;9.000;2023-04-30T01:07:52;5.70;;;2.80;;
5785;SDS011;2919;48.630;9.000;2023-04-30T01:10:20;6.57;;;3.10;;
5785;SDS011;2919;48.630;9.000;2023-04-30T01:15:53;8.70;;;3.43;;
5785;SDS011;2919;48.630;9.000;2023-04-30T01:18:27;6.83;;;2.87;;
5785;SDS011;2919;48.630;9.000;2023-04-30T01:20:58;6.93;;;3.10;;
5785;SDS011;2919;48.630;9.000;2023-04-30T01:23:41;11.07;;;3.53;;
5785;SDS011;2919;48.630;9.000;2023-04-30T01:29:13;8.10;;;4.10;;
5785;SDS011;2919;48.630;9.000;2023-04-30T01:31:42;7.93;;;3.37;;
5785;SDS011;2919;48.630;9.000;2023-04-30T01:34:08;9.13;;;3.37;;
5785;SDS011;2919;48.630;9.000;2023-04-30T01:50:28;5.10;;;3.37;;
5785;SDS011;2919;48.630;9.000;2023-04-30T01:53:08;6.83;;;3.60;;
5785;SDS011;2919;48.630;9.000;2023-04-30T01:55:56;5.23;;;3.00;;
5785;SDS011;2919;48.630;9.000;2023-04-30T01:58:28;7.83;;;3.40;;
5785;SDS011;2919;48.630;9.000;2023-04-30T02:00:55;5.23;;;3.27;;
5785;SDS011;2919;48.630;9.000;2023-04-30T02:03:21;7.33;;;3.50;;
5785;SDS011;2919;48.630;9.000;2023-04-30T02:05:47;7.67;;;3.30;;
5785;SDS011;2919;48.630;9.000;2023-04-30T02:08:13;7.23;;;3.33;;
5785;SDS011;2919;48.630;9.000;2023-04-30T02:10:38;6.90;;;3.20;;
5785;SDS011;2919;48.630;9.000;2023-04-30T02:13:04;8.60;;;3.70;;
5785;SDS011;2919;48.630;9.000;2023-04-30T02:15:29;9.67;;;3.70;;
5785;SDS011;2919;48.630;9.000;2023-04-30T02:17:55;4.70;;;2.90;;
5785;SDS011;2919;48.630;9.000;2023-04-30T02:20:21;7.40;;;3.50;;
5785;SDS011;2919;48.630;9.000;2023-04-30T02:22:47;9.70;;;4.30;;
5785;SDS011;2919;48.630;9.000;2023-04-30T02:25:12;6.37;;;3.40;;
5785;SDS011;2919;48.630;9.000;2023-04-30T02:27:38;4.47;;;3.00;;
5785;SDS011;2919;48.630;9.000;2023-04-30T02:30:04;7.43;;;4.10;;
5785;SDS011;2919;48.630;9.000;2023-04-30T02:32:31;9.93;;;3.77;;
5785;SDS011;2919;48.630;9.000;2023-04-30T02:34:56;7.90;;;3.33;;
5785;SDS011;2919;48.630;9.000;2023-04-30T02:37:22;6.27;;;3.23;;
5785;SDS011;2919;48.630;9.000;2023-04-30T02:39:48;7.27;;;4.30;;
5785;SDS011;2919;48.630;9.000;2023-04-30T02:42:14;7.67;;;4.03;;
5785;SDS011;2919;48.630;9.000;2023-04-30T02:44:39;10.83;;;3.87;;
5785;SDS011;2919;48.630;9.000;2023-04-30T02:47:05;6.83;;;4.40;;
5785;SDS011;2919;48.630;9.000;2023-04-30T02:49:31;7.00;;;3.50;;
5785;SDS011;2919;48.630;9.000;2023-04-30T02:51:57;7.37;;;3.77;;
5785;SDS011;2919;48.630;9.000;2023-04-30T02:54:22;19.63;;;5.13;;
5785;SDS011;2919;48.630;9.000;2023-04-30T02:56:48;8.50;;;4.10;;
5785;SDS011;2919;48.630;9.000;2023-04-30T02:59:14;7.37;;;4.10;;
5785;SDS011;2919;48.630;9.000;2023-04-30T03:01:39;8.30;;;4.63;;
5785;SDS011;2919;48.630;9.000;2023-04-30T03:04:05;9.30;;;4.43;;
5785;SDS011;2919;48.630;9.000;2023-04-30T03:06:31;7.93;;;4.40;;
5785;SDS011;2919;48.630;9.000;2023-04-30T03:08:57;10.63;;;4.63;;
5785;SDS011;2919;48.630;9.000;2023-04-30T03:11:22;18.70;;;4.63;;
5785;SDS011;2919;48.630;9.000;2023-04-30T03:13:48;8.10;;;4.27;;
5785;SDS011;2919;48.630;9.000;2023-04-30T03:16:19;11.40;;;5.00;;
5785;SDS011;2919;48.630;9.000;2023-04-30T03:18:46;6.00;;;3.87;;
5785;SDS011;2919;48.630;9.000;2023-04-30T03:21:12;8.60;;;4.40;;
5785;SDS011;2919;48.630;9.000;2023-04-30T03:23:38;14.40;;;4.50;;
5785;SDS011;2919;48.630;9.000;2023-04-30T03:26:04;12.40;;;6.20;;
5785;SDS011;2919;48.630;9.000;2023-04-30T03:28:29;9.47;;;4.70;;
5785;SDS011;2919;48.630;9.000;2023-04-30T03:30:55;8.23;;;4.83;;
5785;SDS011;2919;48.630;9.000;2023-04-30T03:33:21;12.40;;;5.80;;
5785;SDS011;2919;48.630;9.000;2023-04-30T03:35:46;20.97;;;5.27;;
5785;SDS011;2919;48.630;9.000;2023-04-30T03:38:13;10.73;;;5.03;;
5785;SDS011;2919;48.630;9.000;2023-04-30T03:40:39;10.47;;;4.80;;
5785;SDS011;2919;48.630;9.000;2023-04-30T03:43:05;10.93;;;5.07;;
5785;SDS011;2919;48.630;9.000;2023-04-30T03:45:30;9.77;;;5.13;;
5785;SDS011;2919;48.630;9.000;2023-04-30T03:47:56;6.53;;;4.03;;
5785;SDS011;2919;48.630;9.000;2023-04-30T03:50:22;8.33;;;4.43;;
5785;SDS011;2919;48.630;9.000;2023-04-30T03:52:47;8.57;;;4.70;;
5785;SDS011;2919;48.630;9.000;2023-04-30T03:55:13;9.60;;;5.60;;
5785;SDS011;2919;48.630;9.000;2023-04-30T03:57:38;18.00;;;6.13;;
5785;SDS011;2919;48.630;9.000;2023-04-30T04:00:05;19.23;;;6.17;;
5785;SDS011;2919;48.630;9.000;2023-04-30T04:02:31;14.20;;;6.53;;
5785;SDS011;2919;48.630;9.000;2023-04-30T04:04:57;9.33;;;5.27;;
5785;SDS011;2919;48.630;9.000;2023-04-30T04:07:23;7.70;;;4.30;;
5785;SDS011;2919;48.630;9.000;2023-04-30T04:09:49;9.33;;;5.17;;
5785;SDS011;2919;48.630;9.000;2023-04-30T04:12:15;12.40;;;5.10;;
5785;SDS011;2919;48.630;9.000;2023-04-30T04:14:40;10.77;;;5.17;;
5785;SDS011;2919;48.630;9.000;2023-04-30T04:17:06;10.50;;;5.53;;
5785;SDS011;2919;48.630;9.000;2023-04-30T04:19:32;14.67;;;5.33;;
5785;SDS011;2919;48.630;9.000;2023-04-30T04:21:57;8.13;;;4.93;;
5785;SDS011;2919;48.630;9.000;2023-04-30T04:24:23;12.13;;;4.80;;
5785;SDS011;2919;48.630;9.000;2023-04-30T04:26:49;11.73;;;5.30;;
5785;SDS011;2919;48.630;9.000;2023-04-30T04:29:16;10.87;;;4.77;;
5785;SDS011;2919;48.630;9.000;2023-04-30T04:31:41;9.50;;;4.50;;
5785;SDS011;2919;48.630;9.000;2023-04-30T04:34:07;12.83;;;4.83;;
5785;SDS011;2919;48.630;9.000;2023-04-30T04:36:33;9.13;;;4.50;;
5785;SDS011;2919;48.630;9.000;2023-04-30T04:38:59;10.80;;;5.00;;
5785;SDS011;2919;48.630;9.000;2023-04-30T04:41:28;11.57;;;5.93;;
5785;SDS011;2919;48.630;9.000;2023-04-30T04:43:54;9.37;;;6.00;;
5785;SDS011;2919;48.630;9.000;2023-04-30T04:46:23;6.20;;;4.20;;
5785;SDS011;2919;48.630;9.000;2023-04-30T04:48:49;13.50;;;5.27;;
5785;SDS011;2919;48.630;9.000;2023-04-30T04:51:15;10.27;;;4.80;;
5785;SDS011;2919;48.630;9.000;2023-04-30T04:53:41;8.13;;;4.97;;
5785;SDS011;2919;48.630;9.000;2023-04-30T04:56:06;7.40;;;4.47;;
5785;SDS011;2919;48.630;9.000;2023-04-30T04:58:33;8.90;;;4.83;;
5785;SDS011;2919;48.630;9.000;2023-04-30T05:00:58;8.03;;;4.50;;
5785;SDS011;2919;48.630;9.000;2023-04-30T05:03:27;12.17;;;5.93;;
5785;SDS011;2919;48.630;9.000;2023-04-30T05:05:55;9.60;;;4.30;;
5785;SDS011;2919;48.630;9.000;2023-04-30T05:08:21;10.80;;;4.87;;
5785;SDS011;2919;48.630;9.000;2023-04-30T05:10:47;7.93;;;4.60;;
5785;SDS011;2919;48.630;9.000;2023-04-30T05:13:12;37.40;;;5.97;;
5785;SDS011;2919;48.630;9.000;2023-04-30T05:15:38;11.90;;;6.77;;
5785;SDS011;2919;48.630;9.000;2023-04-30T05:18:03;10.27;;;4.90;;
5785;SDS011;2919;48.630;9.000;2023-04-30T05:20:29;9.83;;;5.10;;
5785;SDS011;2919;48.630;9.000;2023-04-30T05:22:55;14.57;;;6.70;;
5785;SDS011;2919;48.630;9.000;2023-04-30T05:25:20;10.70;;;4.73;;
5785;SDS011;2919;48.630;9.000;2023-04-30T05:27:46;13.03;;;5.10;;
5785;SDS011;2919;48.630;9.000;2023-04-30T05:30:11;12.60;;;5.67;;
5785;SDS011;2919;48.630;9.000;2023-04-30T05:32:39;7.80;;;4.30;;
5785;SDS011;2919;48.630;9.000;2023-04-30T05:35:06;9.30;;;5.10;;
5785;SDS011;2919;48.630;9.000;2023-04-30T05:37:32;15.50;;;6.07;;
5785;SDS011;2919;48.630;9.000;2023-04-30T05:39:57;12.70;;;4.60;;
5785;SDS011;2919;48.630;9.000;2023-04-30T05:42:23;9.93;;;5.10;;
5785;SDS011;2919;48.630;9.000;2023-04-30T05:44:49;10.40;;;4.97;;
5785;SDS011;2919;48.630;9.000;2023-04-30T05:47:14;7.20;;;3.97;;
5785;SDS011;2919;48.630;9.000;2023-04-30T05:49:40;10.60;;;5.07;;
5785;SDS011;2919;48.630;9.000;2023-04-30T05:52:05;13.70;;;6.50;;
5785;SDS011;2919;48.630;9.000;2023-04-30T05:54:31;17.97;;;4.37;;
5785;SDS011;2919;48.630;9.000;2023-04-30T05:56:58;10.87;;;4.50;;
5785;SDS011;2919;48.630;9.000;2023-04-30T05:59:24;7.87;;;4.60;;
5785;SDS011;2919;48.630;9.000;2023-04-30T06:01:50;8.60;;;5.13;;
5785;SDS011;2919;48.630;9.000;2023-04-30T06:04:16;18.00;;;5.30;;
5785;SDS011;2919;48.630;9.000;2023-04-30T06:06:41;5.77;;;3.80;;
5785;SDS011;2919;48.630;9.000;2023-04-30T06:09:07;7.27;;;4.23;;
5785;SDS011;2919;48.630;9.000;2023-04-30T06:11:33;9.13;;;4.70;;
5785;SDS011;2919;48.630;9.000;2023-04-30T06:13:59;8.93;;;5.17;;
5785;SDS011;2919;48.630;9.000;2023-04-30T06:16:25;9.17;;;4.50;;
5785;SDS011;2919;48.630;9.000;2023-04-30T06:18:50;7.70;;;4.00;;
5785;SDS011;2919;48.630;9.000;2023-04-30T06:21:16;13.67;;;5.37;;
5785;SDS011;2919;48.630;9.000;2023-04-30T06:23:41;24.93;;;5.37;;
5785;SDS011;2919;48.630;9.000;2023-04-30T06:26:07;10.13;;;5.30;;
5785;SDS011;2919;48.630;9.000;2023-04-30T06:28:33;8.20;;;4.67;;
5785;SDS011;2919;48.630;9.000;2023-04-30T06:30:58;9.03;;;5.00;;
5785;SDS011;2919;48.630;9.000;2023-04-30T06:33:24;8.63;;;3.80;;
5785;SDS011;2919;48.630;9.000;2023-04-30T06:35:49;15.20;;;4.90;;
5785;SDS011;2919;48.630;9.000;2023-04-30T06:38:18;13.53;;;4.50;;
5785;SDS011;2919;48.630;9.000;2023-04-30T06:40:44;8.67;;;5.40;;
5785;SDS011;2919;48.630;9.000;2023-04-30T06:43:09;9.90;;;5.33;;
5785;SDS011;2919;48.630;9.000;2023-04-30T06:45:36;7.80;;;4.30;;
5785;SDS011;2919;48.630;9.000;2023-04-30T06:48:01;10.83;;;4.40;;
5785;SDS011;2919;48.630;9.000;2023-04-30T06:50:27;10.00;;;5.30;;
5785;SDS011;2919;48.630;9.000;2023-04-30T06:52:53;8.60;;;4.63;;
5785;SDS011;2919;48.630;9.000;2023-04-30T06:55:18;14.00;;;5.27;;
5785;SDS011;2919;48.630;9.000;2023-04-30T06:57:44;9.43;;;4.50;;
5785;SDS011;2919;48.630;9.000;2023-04-30T07:00:10;22.87;;;5.50;;
5785;SDS011;2919;48.630;9.000;2023-04-30T07:02:36;14.03;;;5.40;;
5785;SDS011;2919;48.630;9.000;2023-04-30T07:05:02;9.53;;;4.77;;
5785;SDS011;2919;48.630;9.000;2023-04-30T07:07:28;8.30;;;4.33;;
5785;SDS011;2919;48.630;9.000;2023-04-30T07:09:53;9.33;;;5.17;;
5785;SDS011;2919;48.630;9.000;2023-04-30T07:12:19;10.07;;;5.20;;
5785;SDS011;2919;48.630;9.000;2023-04-30T07:14:46;6.60;;;4.20;;
5785;SDS011;2919;48.630;9.000;2023-04-30T07:17:12;7.13;;;3.70;;
5785;SDS011;2919;48.630;9.000;2023-04-30T07:19:37;10.93;;;4.70;;
5785;SDS011;2919;48.630;9.000;2023-04-30T07:22:03;5.33;;;3.20;;
5785;SDS011;2919;48.630;9.000;2023-04-30T07:24:28;8.87;;;4.53;;
5785;SDS011;2919;48.630;9.000;2023-04-30T07:26:54;11.77;;;4.80;;
5785;SDS011;2919;48.630;9.000;2023-04-30T07:29:20;11.00;;;4.30;;
5785;SDS011;2919;48.630;9.000;2023-04-30T07:31:46;8.00;;;4.23;;
5785;SDS011;2919;48.630;9.000;2023-04-30T07:34:12;13.80;;;4.20;;
5785;SDS011;2919;48.630;9.000;2023-04-30T07:36:37;7.80;;;3.90;;
5785;SDS011;2919;48.630;9.000;2023-04-30T07:39:03;6.93;;;3.47;;
5785;SDS011;2919;48.630;9.000;2023-04-30T07:41:30;8.43;;;4.10;;
5785;SDS011;2919;48.630;9.000;2023-04-30T07:43:56;8.37;;;3.10;;
5785;SDS011;2919;48.630;9.000;2023-04-30T07:46:21;8.33;;;3.30;;
5785;SDS011;2919;48.630;9.000;2023-04-30T07:48:49;8.20;;;4.30;;
5785;SDS011;2919;48.630;9.000;2023-04-30T07:51:14;8.50;;;3.20;;
5785;SDS011;2919;48.630;9.000;2023-04-30T07:53:40;15.07;;;3.30;;
5785;SDS011;2919;48.630;9.000;2023-04-30T07:56:06;8.67;;;4.20;;
5785;SDS011;2919;48.630;9.000;2023-04-30T07:58:32;9.63;;;4.17;;
5785;SDS011;2919;48.630;9.000;2023-04-30T08:00:58;4.90;;;2.83;;
5785;SDS011;2919;48.630;9.000;2023-04-30T08:03:23;5.17;;;3.00;;
5785;SDS011;2919;48.630;9.000;2023-04-30T08:05:49;5.13;;;2.87;;
5785;SDS011;2919;48.630;9.000;2023-04-30T08:08:16;5.00;;;2.93;;
5785;SDS011;2919;48.630;9.000;2023-04-30T08:10:41;6.80;;;3.70;;
5785;SDS011;2919;48.630;9.000;2023-04-30T08:13:07;4.50;;;2.53;;
5785;SDS011;2919;48.630;9.000;2023-04-30T08:15:33;6.80;;;3.10;;
5785;SDS011;2919;48.630;9.000;2023-04-30T08:17:58;4.83;;;2.70;;
5785;SDS011;2919;48.630;9.000;2023-04-30T08:20:24;5.17;;;2.77;;
5785;SDS011;2919;48.630;9.000;2023-04-30T08:22:50;4.70;;;2.90;;
5785;SDS011;2919;48.630;9.000;2023-04-30T08:25:16;5.70;;;2.57;;
5785;SDS011;2919;48.630;9.000;2023-04-30T08:27:41;4.00;;;2.10;;
5785;SDS011;2919;48.630;9.000;2023-04-30T08:30:07;5.03;;;2.43;;
5785;SDS011;2919;48.630;9.000;2023-04-30T08:32:33;4.30;;;2.43;;
5785;SDS011;2919;48.630;9.000;2023-04-30T08:35:05;3.53;;;2.53;;
5785;SDS011;2919;48.630;9.000;2023-04-30T08:37:31;6.17;;;2.90;;
5785;SDS011;2919;48.630;9.000;2023-04-30T08:39:57;5.90;;;2.40;;
5785;SDS011;2919;48.630;9.000;2023-04-30T08:42:24;5.83;;;3.17;;
5785;SDS011;2919;48.630;9.000;2023-04-30T08:44:53;5.60;;;2.40;;
5785;SDS011;2919;48.630;9.000;2023-04-30T08:47:19;5.13;;;2.23;;
5785;SDS011;2919;48.630;9.000;2023-04-30T08:49:45;5.50;;;2.83;;
5785;SDS011;2919;48.630;9.000;2023-04-30T08:52:11;4.67;;;2.70;;
5785;SDS011;2919;48.630;9.000;2023-04-30T08:54:37;5.00;;;2.50;;
5785;SDS011;2919;48.630;9.000;2023-04-30T08:57:02;4.43;;;2.37;;
5785;SDS011;2919;48.630;9.000;2023-04-30T08:59:29;4.80;;;2.50;;
5785;SDS011;2919;48.630;9.000;2023-04-30T09:01:55;6.37;;;2.47;;
5785;SDS011;2919;48.630;9.000;2023-04-30T09:04:20;5.73;;;2.50;;
5785;SDS011;2919;48.630;9.000;2023-04-30T09:06:46;3.03;;;2.03;;
5785;SDS011;2919;48.630;9.000;2023-04-30T09:09:13;5.43;;;2.50;;
5785;SDS011;2919;48.630;9.000;2023-04-30T09:11:39;6.30;;;2.13;;
5785;SDS011;2919;48.630;9.000;2023-04-30T09:14:06;5.87;;;2.80;;
5785;SDS011;2919;48.630;9.000;2023-04-30T09:16:45;3.83;;;2.30;;
5785;SDS011;2919;48.630;9.000;2023-04-30T09:19:22;5.47;;;2.30;;
5785;SDS011;2919;48.630;9.000;2023-04-30T09:21:48;4.23;;;1.50;;
5785;SDS011;2919;48.630;9.000;2023-04-30T09:24:14;13.57;;;2.27;;
5785;SDS011;2919;48.630;9.000;2023-04-30T09:26:41;3.20;;;1.80;;
5785;SDS011;2919;48.630;9.000;2023-04-30T09:29:07;2.23;;;1.30;;
5785;SDS011;2919;48.630;9.000;2023-04-30T09:31:34;3.30;;;1.63;;
5785;SDS011;2919;48.630;9.000;2023-04-30T09:34:01;3.27;;;1.93;;
5785;SDS011;2919;48.630;9.000;2023-04-30T09:36:27;3.80;;;2.00;;
5785;SDS011;2919;48.630;9.000;2023-04-30T09:38:54;8.00;;;2.40;;
5785;SDS011;2919;48.630;9.000;2023-04-30T09:41:23;7.43;;;2.83;;
5785;SDS011;2919;48.630;9.000;2023-04-30T09:43:54;3.37;;;1.93;;
5785;SDS011;2919;48.630;9.000;2023-04-30T09:46:21;4.77;;;2.73;;
5785;SDS011;2919;48.630;9.000;2023-04-30T09:49:01;5.43;;;2.40;;
5785;SDS011;2919;48.630;9.000;2023-04-30T09:51:27;5.83;;;1.47;;
5785;SDS011;2919;48.630;9.000;2023-04-30T09:53:53;6.03;;;2.20;;
5785;SDS011;2919;48.630;9.000;2023-04-30T09:56:23;7.20;;;2.00;;
5785;SDS011;2919;48.630;9.000;2023-04-30T09:58:51;5.00;;;1.97;;
5785;SDS011;2919;48.630;9.000;2023-04-30T10:01:22;2.93;;;1.43;;
5785;SDS011;2919;48.630;9.000;2023-04-30T10:03:52;4.40;;;2.00;;
5785;SDS011;2919;48.630;9.000;2023-04-30T10:06:19;3.30;;;1.83;;
5785;SDS011;2919;48.630;9.000;2023-04-30T10:08:46;5.20;;;1.90;;
5785;SDS011;2919;48.630;9.000;2023-04-30T10:11:17;2.80;;;1.70;;
5785;SDS011;2919;48.630;9.000;2023-04-30T10:18:52;3.67;;;2.13;;
5785;SDS011;2919;48.630;9.000;2023-04-30T10:21:19;4.90;;;2.13;;
5785;SDS011;2919;48.630;9.000;2023-04-30T10:23:48;2.67;;;1.80;;
5785;SDS011;2919;48.630;9.000;2023-04-30T10:26:15;6.50;;;2.43;;
5785;SDS011;2919;48.630;9.000;2023-04-30T10:28:42;4.17;;;1.83;;
5785;SDS011;2919;48.630;9.000;2023-04-30T10:31:09;3.47;;;1.63;;
5785;SDS011;2919;48.630;9.000;2023-04-30T10:36:47;3.20;;;1.57;;
5785;SDS011;2919;48.630;9.000;2023-04-30T10:39:21;2.53;;;1.57;;
5785;SDS011;2919;48.630;9.000;2023-04-30T10:41:51;3.30;;;1.63;;
5785;SDS011;2919;48.630;9.000;2023-04-30T10:44:25;3.33;;;1.77;;
5785;SDS011;2919;48.630;9.000;2023-04-30T10:46:57;3.90;;;2.27;;
5785;SDS011;2919;48.630;9.000;2023-04-30T10:49:24;3.67;;;2.00;;
5785;SDS011;2919;48.630;9.000;2023-04-30T10:51:51;4.17;;;2.10;;
5785;SDS011;2919;48.630;9.000;2023-04-30T10:54:32;3.50;;;1.90;;
5785;SDS011;2919;48.630;9.000;2023-04-30T10:57:12;2.83;;;1.60;;
5785;SDS011;2919;48.630;9.000;2023-04-30T10:59:42;3.43;;;1.70;;
5785;SDS011;2919;48.630;9.000;2023-04-30T11:02:16;6.30;;;1.53;;
5785;SDS011;2919;48.630;9.000;2023-04-30T11:07:45;2.13;;;1.27;;
5785;SDS011;2919;48.630;9.000;2023-04-30T11:10:22;5.37;;;2.30;;
5785;SDS011;2919;48.630;9.000;2023-04-30T11:12:50;3.27;;;1.80;;
5785;SDS011;2919;48.630;9.000;2023-04-30T11:15:17;3.90;;;1.63;;
5785;SDS011;2919;48.630;9.000;2023-04-30T11:17:49;5.03;;;1.47;;
5785;SDS011;2919;48.630;9.000;2023-04-30T11:20:19;4.97;;;2.20;;
5785;SDS011;2919;48.630;9.000;2023-04-30T11:22:46;3.80;;;1.97;;
5785;SDS011;2919;48.630;9.000;2023-04-30T11:25:12;3.30;;;1.53;;
5785;SDS011;2919;48.630;9.000;2023-04-30T11:27:43;3.97;;;2.03;;
5785;SDS011;2919;48.630;9.000;2023-04-30T11:32:40;4.87;;;1.63;;
5785;SDS011;2919;48.630;9.000;2023-04-30T11:35:11;5.33;;;2.13;;
5785;SDS011;2919;48.630;9.000;2023-04-30T11:37:38;2.43;;;1.27;;
5785;SDS011;2919;48.630;9.000;2023-04-30T11:40:08;2.43;;;1.43;;
5785;SDS011;2919;48.630;9.000;2023-04-30T11:42:35;2.53;;;1.50;;
5785;SDS011;2919;48.630;9.000;2023-04-30T11:50:10;2.47;;;1.27;;
5785;SDS011;2919;48.630;9.000;2023-04-30T11:52:51;3.93;;;1.90;;
5785;SDS011;2919;48.630;9.000;2023-04-30T11:55:19;2.50;;;1.50;;
5785;SDS011;2919;48.630;9.000;2023-04-30T11:57:46;2.33;;;1.50;;
5785;SDS011;2919;48.630;9.000;2023-04-30T12:00:14;3.90;;;1.30;;
5785;SDS011;2919;48.630;9.000;2023-04-30T12:02:42;3.33;;;1.97;;
5785;SDS011;2919;48.630;9.000;2023-04-30T12:07:46;2.63;;;1.60;;
5785;SDS011;2919;48.630;9.000;2023-04-30T12:10:21;5.43;;;1.30;;
5785;SDS011;2919;48.630;9.000;2023-04-30T12:12:48;2.13;;;1.30;;
5785;SDS011;2919;48.630;9.000;2023-04-30T12:15:16;3.60;;;1.60;;
5785;SDS011;2919;48.630;9.000;2023-04-30T12:17:43;8.03;;;2.20;;
5785;SDS011;2919;48.630;9.000;2023-04-30T12:20:10;2.10;;;1.60;;
5785;SDS011;2919;48.630;9.000;2023-04-30T12:22:37;3.30;;;1.80;;
5785;SDS011;2919;48.630;9.000;2023-04-30T12:25:22;4.17;;;1.60;;
5785;SDS011;2919;48.630;9.000;2023-04-30T12:27:49;1.77;;;1.10;;
5785;SDS011;2919;48.630;9.000;2023-04-30T12:30:20;3.43;;;1.90;;
5785;SDS011;2919;48.630;9.000;2023-04-30T12:32:48;4.03;;;1.40;;
5785;SDS011;2919;48.630;9.000;2023-04-30T12:35:17;4.17;;;1.93;;
5785;SDS011;2919;48.630;9.000;2023-04-30T12:40:10;2.13;;;1.13;;
5785;SDS011;2919;48.630;9.000;2023-04-30T12:42:37;2.67;;;1.53;;
5785;SDS011;2919;48.630;9.000;2023-04-30T12:45:03;5.70;;;1.47;;
5785;SDS011;2919;48.630;9.000;2023-04-30T12:47:29;2.93;;;1.80;;
5785;SDS011;2919;48.630;9.000;2023-04-30T12:49:55;2.93;;;1.13;;
5785;SDS011;2919;48.630;9.000;2023-04-30T12:52:24;2.73;;;1.43;;
5785;SDS011;2919;48.630;9.000;2023-04-30T12:54:50;4.03;;;1.97;;
5785;SDS011;2919;48.630;9.000;2023-04-30T12:57:18;3.00;;;1.57;;
5785;SDS011;2919;48.630;9.000;2023-04-30T12:59:59;1.93;;;1.13;;
5785;SDS011;2919;48.630;9.000;2023-04-30T13:02:26;2.50;;;1.20;;
5785;SDS011;2919;48.630;9.000;2023-04-30T13:04:53;3.60;;;1.20;;
5785;SDS011;2919;48.630;9.000;2023-04-30T13:07:19;1.93;;;1.10;;
5785;SDS011;2919;48.630;9.000;2023-04-30T13:09:45;3.40;;;1.70;;
5785;SDS011;2919;48.630;9.000;2023-04-30T13:12:10;7.63;;;1.50;;
5785;SDS011;2919;48.630;9.000;2023-04-30T13:14:36;2.50;;;1.37;;
5785;SDS011;2919;48.630;9.000;2023-04-30T13:17:03;2.43;;;1.30;;
5785;SDS011;2919;48.630;9.000;2023-04-30T13:19:31;3.20;;;1.23;;
5785;SDS011;2919;48.630;9.000;2023-04-30T13:21:57;5.20;;;1.87;;
5785;SDS011;2919;48.630;9.000;2023-04-30T13:24:23;7.73;;;1.57;;
5785;SDS011;2919;48.630;9.000;2023-04-30T13:26:49;3.10;;;1.50;;
5785;SDS011;2919;48.630;9.000;2023-04-30T13:29:15;6.00;;;1.50;;
5785;SDS011;2919;48.630;9.000;2023-04-30T13:31:40;5.53;;;1.63;;
5785;SDS011;2919;48.630;9.000;2023-04-30T13:34:07;2.10;;;1.33;;
5785;SDS011;2919;48.630;9.000;2023-04-30T13:36:33;2.80;;;1.50;;
5785;SDS011;2919;48.630;9.000;2023-04-30T13:39:00;2.17;;;1.37;;
5785;SDS011;2919;48.630;9.000;2023-04-30T13:41:25;3.73;;;1.80;;
5785;SDS011;2919;48.630;9.000;2023-04-30T13:43:51;2.60;;;1.20;;
5785;SDS011;2919;48.630;9.000;2023-04-30T13:46:17;4.00;;;2.23;;
5785;SDS011;2919;48.630;9.000;2023-04-30T13:48:43;3.43;;;1.47;;
5785;SDS011;2919;48.630;9.000;2023-04-30T13:51:12;1.73;;;1.03;;
5785;SDS011;2919;48.630;9.000;2023-04-30T13:53:37;3.70;;;1.80;;
5785;SDS011;2919;48.630;9.000;2023-04-30T13:56:04;3.60;;;1.77;;
5785;SDS011;2919;48.630;9.000;2023-04-30T13:58:30;2.50;;;1.43;;
5785;SDS011;2919;48.630;9.000;2023-04-30T14:00:56;3.67;;;1.73;;
5785;SDS011;2919;48.630;9.000;2023-04-30T14:03:22;2.73;;;1.60;;
5785;SDS011;2919;48.630;9.000;2023-04-30T14:05:47;3.37;;;1.67;;
5785;SDS011;2919;48.630;9.000;2023-04-30T14:08:13;3.23;;;1.80;;
5785;SDS011;2919;48.630;9.000;2023-04-30T14:10:39;3.40;;;1.60;;
5785;SDS011;2919;48.630;9.000;2023-04-30T14:13:05;3.30;;;1.77;;
5785;SDS011;2919;48.630;9.000;2023-04-30T14:15:30;3.07;;;1.20;;
5785;SDS011;2919;48.630;9.000;2023-04-30T14:17:56;1.83;;;1.00;;
5785;SDS011;2919;48.630;9.000;2023-04-30T14:20:22;3.87;;;1.70;;
5785;SDS011;2919;48.630;9.000;2023-04-30T14:22:49;3.70;;;1.83;;
5785;SDS011;2919;48.630;9.000;2023-04-30T14:25:14;4.60;;;1.57;;
5785;SDS011;2919;48.630;9.000;2023-04-30T14:27:40;3.90;;;1.93;;
5785;SDS011;2919;48.630;9.000;2023-04-30T14:30:06;4.63;;;1.50;;
5785;SDS011;2919;48.630;9.000;2023-04-30T14:32:33;3.70;;;1.90;;
5785;SDS011;2919;48.630;9.000;2023-04-30T14:34:58;2.80;;;1.50;;
5785;SDS011;2919;48.630;9.000;2023-04-30T14:37:24;3.40;;;1.60;;
5785;SDS011;2919;48.630;9.000;2023-04-30T14:39:50;4.60;;;1.53;;
5785;SDS011;2919;48.630;9.000;2023-04-30T14:42:15;2.77;;;1.20;;
5785;SDS011;2919;48.630;9.000;2023-04-30T14:44:41;1.80;;;1.23;;
5785;SDS011;2919;48.630;9.000;2023-04-30T14:47:06;3.30;;;1.50;;
5785;SDS011;2919;48.630;9.000;2023-04-30T14:49:32;2.67;;;1.43;;
5785;SDS011;2919;48.630;9.000;2023-04-30T14:51:58;4.40;;;2.00;;
5785;SDS011;2919;48.630;9.000;2023-04-30T14:54:23;4.20;;;1.70;;
5785;SDS011;2919;48.630;9.000;2023-04-30T14:56:49;3.77;;;1.40;;
5785;SDS011;2919;48.630;9.000;2023-04-30T14:59:16;2.93;;;1.87;;
5785;SDS011;2919;48.630;9.000;2023-04-30T15:01:41;1.60;;;1.00;;
5785;SDS011;2919;48.630;9.000;2023-04-30T15:04:07;2.60;;;1.63;;
5785;SDS011;2919;48.630;9.000;2023-04-30T15:06:33;13.00;;;2.30;;
5785;SDS011;2919;48.630;9.000;2023-04-30T15:08:59;2.30;;;1.40;;
5785;SDS011;2919;48.630;9.000;2023-04-30T15:11:25;4.47;;;1.37;;
5785;SDS011;2919;48.630;9.000;2023-04-30T15:13:52;2.93;;;1.37;;
5785;SDS011;2919;48.630;9.000;2023-04-30T15:16:18;2.13;;;1.23;;
5785;SDS011;2919;48.630;9.000;2023-04-30T15:18:44;2.77;;;1.67;;
5785;SDS011;2919;48.630;9.000;2023-04-30T15:21:09;1.70;;;0.90;;
5785;SDS011;2919;48.630;9.000;2023-04-30T15:23:35;3.63;;;1.73;;
5785;SDS011;2919;48.630;9.000;2023-04-30T15:26:01;1.97;;;1.07;;
5785;SDS011;2919;48.630;9.000;2023-04-30T15:28:28;2.30;;;1.37;;
5785;SDS011;2919;48.630;9.000;2023-04-30T15:30:55;8.53;;;1.87;;
5785;SDS011;2919;48.630;9.000;2023-04-30T15:33:20;4.57;;;2.13;;
5785;SDS011;2919;48.630;9.000;2023-04-30T15:35:51;2.23;;;1.53;;
5785;SDS011;2919;48.630;9.000;2023-04-30T15:38:17;2.53;;;1.20;;
5785;SDS011;2919;48.630;9.000;2023-04-30T15:40:44;2.53;;;1.30;;
5785;SDS011;2919;48.630;9.000;2023-04-30T15:43:09;2.53;;;1.00;;
5785;SDS011;2919;48.630;9.000;2023-04-30T15:45:35;4.30;;;1.43;;
5785;SDS011;2919;48.630;9.000;2023-04-30T15:48:00;2.33;;;1.40;;
5785;SDS011;2919;48.630;9.000;2023-04-30T15:50:26;5.37;;;1.80;;
5785;SDS011;2919;48.630;9.000;2023-04-30T15:52:53;9.27;;;1.53;;
5785;SDS011;2919;48.630;9.000;2023-04-30T15:55:18;3.27;;;1.60;;